createdAt,value
2018-06-02T00:00:37.057Z,0
2018-06-02T00:01:17.629Z,0
2018-06-02T00:01:58.214Z,0
2018-06-02T00:02:38.771Z,0
2018-06-02T00:03:19.316Z,0
2018-06-02T00:03:59.884Z,0
2018-06-02T00:04:40.445Z,0
2018-06-02T00:05:21.032Z,0
2018-06-02T00:06:01.592Z,0
2018-06-02T00:06:42.151Z,0
2018-06-02T00:07:22.719Z,0
2018-06-02T00:08:03.266Z,0
2018-06-02T00:08:43.788Z,0
2018-06-02T00:09:24.378Z,0
2018-06-02T00:10:04.943Z,0
2018-06-02T00:10:45.516Z,0
2018-06-02T00:11:26.125Z,0
2018-06-02T00:12:06.687Z,0
2018-06-02T00:12:47.261Z,0
2018-06-02T00:13:27.899Z,0
2018-06-02T00:14:08.465Z,0
2018-06-02T00:14:49.033Z,0
2018-06-02T00:15:29.596Z,0
2018-06-02T00:16:10.157Z,0
2018-06-02T00:16:50.707Z,0
2018-06-02T00:17:31.253Z,0
2018-06-02T00:18:11.814Z,0
2018-06-02T00:18:52.380Z,0
2018-06-02T00:19:32.982Z,0
2018-06-02T00:20:13.552Z,0
2018-06-02T00:20:54.137Z,0
2018-06-02T00:21:34.692Z,0
2018-06-02T00:22:15.235Z,0
2018-06-02T00:22:55.828Z,0
2018-06-02T00:23:36.403Z,0
2018-06-02T00:24:17.023Z,0
2018-06-02T00:24:57.587Z,0
2018-06-02T00:25:38.158Z,0
2018-06-02T00:26:18.726Z,0
2018-06-02T00:26:59.299Z,0
2018-06-02T00:27:39.842Z,0
2018-06-02T00:28:20.389Z,0
2018-06-02T00:29:00.949Z,0
2018-06-02T00:29:41.500Z,0
2018-06-02T00:30:22.048Z,0
2018-06-02T00:31:02.688Z,0
2018-06-02T00:31:43.236Z,0
2018-06-02T00:32:23.808Z,0
2018-06-02T00:33:04.359Z,0
2018-06-02T00:33:44.928Z,0
2018-06-02T00:34:25.504Z,0
2018-06-02T00:35:06.069Z,0
2018-06-02T00:35:46.622Z,0
2018-06-02T00:36:27.209Z,0
2018-06-02T00:37:07.763Z,0
2018-06-02T00:37:48.303Z,0
2018-06-02T00:38:28.884Z,0
2018-06-02T00:39:09.477Z,0
2018-06-02T00:39:50.049Z,0
2018-06-02T00:40:30.613Z,0
2018-06-02T00:41:11.165Z,0
2018-06-02T00:41:51.718Z,0
2018-06-02T00:42:32.305Z,0
2018-06-02T00:43:12.887Z,0
2018-06-02T00:43:53.463Z,0
2018-06-02T00:44:34.779Z,0
2018-06-02T00:45:15.352Z,0
2018-06-02T00:45:55.914Z,0
2018-06-02T00:46:36.466Z,0
2018-06-02T00:47:17.053Z,0
2018-06-02T00:47:57.589Z,0
2018-06-02T00:48:38.141Z,0
2018-06-02T00:49:18.694Z,0
2018-06-02T00:49:59.228Z,0
2018-06-02T00:50:39.787Z,0
2018-06-02T00:51:20.344Z,0
2018-06-02T00:52:00.879Z,0
2018-06-02T00:52:41.444Z,0
2018-06-02T00:53:22.071Z,0
2018-06-02T00:54:02.677Z,0
2018-06-02T00:54:43.377Z,0
2018-06-02T00:55:23.925Z,0
2018-06-02T00:56:04.490Z,0
2018-06-02T00:56:45.053Z,0
2018-06-02T00:57:25.611Z,0
2018-06-02T00:58:06.192Z,0
2018-06-02T00:58:46.731Z,0
2018-06-02T00:59:27.315Z,0
2018-06-02T01:00:07.886Z,0
2018-06-02T01:00:48.495Z,0
2018-06-02T01:01:29.034Z,0
2018-06-02T01:02:09.604Z,0
2018-06-02T01:02:50.169Z,0
2018-06-02T01:03:30.738Z,0
2018-06-02T01:04:11.300Z,0
2018-06-02T01:04:51.873Z,0
2018-06-02T01:05:32.480Z,0
2018-06-02T01:06:13.050Z,0
2018-06-02T01:06:53.621Z,0
2018-06-02T01:07:34.147Z,0
2018-06-02T01:08:14.721Z,0
2018-06-02T01:08:55.302Z,0
2018-06-02T01:09:35.846Z,0
2018-06-02T01:10:16.416Z,0
2018-06-02T01:10:56.987Z,0
2018-06-02T01:11:37.538Z,0
2018-06-02T01:12:18.102Z,0
2018-06-02T01:12:58.704Z,0
2018-06-02T01:13:39.262Z,0
2018-06-02T01:14:19.839Z,0
2018-06-02T01:15:00.401Z,0
2018-06-02T01:15:40.961Z,0
2018-06-02T01:16:21.537Z,0
2018-06-02T01:17:02.079Z,0
2018-06-02T01:17:42.645Z,0
2018-06-02T01:18:23.181Z,0
2018-06-02T01:19:03.729Z,0
2018-06-02T01:19:44.283Z,0
2018-06-02T01:20:24.838Z,0
2018-06-02T01:21:05.369Z,0
2018-06-02T01:21:45.935Z,0
2018-06-02T01:22:26.458Z,0
2018-06-02T01:23:07.024Z,0
2018-06-02T01:23:47.616Z,0
2018-06-02T01:24:28.180Z,0
2018-06-02T01:25:08.762Z,0
2018-06-02T01:25:49.313Z,0
2018-06-02T01:26:29.896Z,0
2018-06-02T01:27:10.447Z,0
2018-06-02T01:27:51.005Z,0
2018-06-02T01:28:31.547Z,0
2018-06-02T01:29:12.091Z,0
2018-06-02T01:29:52.652Z,0
2018-06-02T01:30:33.229Z,0
2018-06-02T01:31:13.810Z,0
2018-06-02T01:31:54.370Z,0
2018-06-02T01:32:34.932Z,0
2018-06-02T01:33:15.489Z,0
2018-06-02T01:33:56.054Z,0
2018-06-02T01:34:36.605Z,0
2018-06-02T01:35:17.148Z,0
2018-06-02T01:35:57.715Z,0
2018-06-02T01:36:38.287Z,0
2018-06-02T01:37:18.901Z,0
2018-06-02T01:37:59.475Z,0
2018-06-02T01:38:40.066Z,0
2018-06-02T01:39:20.666Z,0
2018-06-02T01:40:01.278Z,0
2018-06-02T01:40:41.826Z,0
2018-06-02T01:41:22.412Z,0
2018-06-02T01:42:02.961Z,0
2018-06-02T01:42:43.515Z,0
2018-06-02T01:43:24.117Z,0
2018-06-02T01:44:04.704Z,0
2018-06-02T01:44:45.272Z,0
2018-06-02T01:45:25.958Z,0
2018-06-02T01:46:06.557Z,0
2018-06-02T01:46:47.106Z,0
2018-06-02T01:47:27.704Z,0
2018-06-02T01:48:08.280Z,0
2018-06-02T01:48:48.914Z,0
2018-06-02T01:49:29.480Z,0
2018-06-02T01:50:10.038Z,0
2018-06-02T01:50:50.595Z,0
2018-06-02T01:51:31.169Z,0
2018-06-02T01:52:11.711Z,0
2018-06-02T01:52:52.273Z,0
2018-06-02T01:53:32.826Z,0
2018-06-02T01:54:13.390Z,0
2018-06-02T01:54:53.946Z,0
2018-06-02T01:55:34.521Z,0
2018-06-02T01:56:15.128Z,0
2018-06-02T01:56:55.693Z,0
2018-06-02T01:57:36.235Z,0
2018-06-02T01:58:16.782Z,0
2018-06-02T01:58:57.351Z,0
2018-06-02T01:59:37.925Z,0
2018-06-02T02:00:18.486Z,0
2018-06-02T02:00:59.111Z,0
2018-06-02T02:01:39.673Z,0
2018-06-02T02:02:20.230Z,0
2018-06-02T02:03:00.785Z,0
2018-06-02T02:03:41.376Z,0
2018-06-02T02:04:21.939Z,0
2018-06-02T02:05:02.491Z,0
2018-06-02T02:05:43.059Z,0
2018-06-02T02:06:23.616Z,0
2018-06-02T02:07:04.176Z,0
2018-06-02T02:07:44.742Z,0
2018-06-02T02:08:25.297Z,0
2018-06-02T02:09:05.868Z,0
2018-06-02T02:09:46.480Z,0
2018-06-02T02:10:27.060Z,0
2018-06-02T02:11:07.628Z,0
2018-06-02T02:11:48.195Z,0
2018-06-02T02:12:28.770Z,0
2018-06-02T02:13:09.303Z,4
2018-06-02T02:13:49.888Z,4
2018-06-02T02:14:30.424Z,4
2018-06-02T02:15:11.013Z,0
2018-06-02T02:15:51.551Z,0
2018-06-02T02:16:32.126Z,0
2018-06-02T02:17:12.696Z,4
2018-06-02T02:17:53.253Z,4
2018-06-02T02:18:33.804Z,4
2018-06-02T02:19:14.351Z,0
2018-06-02T02:19:54.911Z,4
2018-06-02T02:20:35.484Z,4
2018-06-02T02:21:16.017Z,4
2018-06-02T02:21:56.639Z,4
2018-06-02T02:22:37.198Z,4
2018-06-02T02:23:17.787Z,4
2018-06-02T02:23:58.320Z,8
2018-06-02T02:24:38.883Z,8
2018-06-02T02:25:19.437Z,4
2018-06-02T02:25:59.997Z,8
2018-06-02T02:26:40.560Z,8
2018-06-02T02:27:21.182Z,8
2018-06-02T02:28:01.705Z,8
2018-06-02T02:28:42.262Z,12
2018-06-02T02:29:22.847Z,8
2018-06-02T02:30:03.408Z,12
2018-06-02T02:30:43.987Z,12
2018-06-02T02:31:24.567Z,16
2018-06-02T02:32:05.128Z,12
2018-06-02T02:32:45.700Z,16
2018-06-02T02:33:26.271Z,16
2018-06-02T02:34:06.855Z,16
2018-06-02T02:34:47.425Z,20
2018-06-02T02:35:27.981Z,20
2018-06-02T02:36:08.540Z,20
2018-06-02T02:36:49.104Z,24
2018-06-02T02:37:29.655Z,24
2018-06-02T02:38:10.249Z,24
2018-06-02T02:38:50.815Z,28
2018-06-02T02:39:31.398Z,32
2018-06-02T02:40:11.943Z,32
2018-06-02T02:40:52.528Z,32
2018-06-02T02:41:33.035Z,36
2018-06-02T02:42:13.610Z,36
2018-06-02T02:42:54.211Z,36
2018-06-02T02:43:34.792Z,40
2018-06-02T02:44:15.346Z,44
2018-06-02T02:44:55.915Z,44
2018-06-02T02:45:36.465Z,44
2018-06-02T02:46:17.018Z,48
2018-06-02T02:46:57.560Z,48
2018-06-02T02:47:38.109Z,52
2018-06-02T02:48:18.681Z,52
2018-06-02T02:48:59.241Z,56
2018-06-02T02:49:39.786Z,56
2018-06-02T02:50:20.346Z,60
2018-06-02T02:51:00.943Z,64
2018-06-02T02:51:41.584Z,68
2018-06-02T02:52:22.144Z,72
2018-06-02T02:53:02.705Z,72
2018-06-02T02:53:43.291Z,76
2018-06-02T02:54:23.845Z,80
2018-06-02T02:55:04.385Z,84
2018-06-02T02:55:44.949Z,88
2018-06-02T02:56:25.528Z,88
2018-06-02T02:57:06.148Z,88
2018-06-02T02:57:46.726Z,92
2018-06-02T02:58:27.305Z,96
2018-06-02T02:59:07.869Z,96
2018-06-02T02:59:48.466Z,96
2018-06-02T03:00:29.013Z,96
2018-06-02T03:01:09.590Z,96
2018-06-02T03:01:50.173Z,96
2018-06-02T03:02:30.745Z,96
2018-06-02T03:03:11.356Z,96
2018-06-02T03:03:51.915Z,100
2018-06-02T03:04:32.469Z,100
2018-06-02T03:05:13.025Z,100
2018-06-02T03:05:53.581Z,100
2018-06-02T03:06:34.173Z,104
2018-06-02T03:07:14.771Z,104
2018-06-02T03:07:55.399Z,108
2018-06-02T03:08:35.968Z,108
2018-06-02T03:09:16.534Z,116
2018-06-02T03:09:57.082Z,116
2018-06-02T03:10:37.644Z,116
2018-06-02T03:11:18.199Z,120
2018-06-02T03:11:58.752Z,124
2018-06-02T03:12:39.330Z,124
2018-06-02T03:13:19.857Z,128
2018-06-02T03:14:00.413Z,128
2018-06-02T03:14:40.961Z,136
2018-06-02T03:15:21.529Z,136
2018-06-02T03:16:02.082Z,136
2018-06-02T03:16:42.672Z,140
2018-06-02T03:17:23.231Z,144
2018-06-02T03:18:03.793Z,144
2018-06-02T03:18:44.358Z,144
2018-06-02T03:19:24.923Z,148
2018-06-02T03:20:05.488Z,152
2018-06-02T03:20:46.043Z,152
2018-06-02T03:21:26.621Z,156
2018-06-02T03:22:07.238Z,160
2018-06-02T03:22:47.820Z,164
2018-06-02T03:23:28.362Z,164
2018-06-02T03:24:08.931Z,168
2018-06-02T03:24:49.496Z,172
2018-06-02T03:25:30.053Z,176
2018-06-02T03:26:10.612Z,180
2018-06-02T03:26:51.185Z,188
2018-06-02T03:27:31.750Z,192
2018-06-02T03:28:12.300Z,196
2018-06-02T03:28:52.916Z,200
2018-06-02T03:29:33.474Z,208
2018-06-02T03:30:14.029Z,212
2018-06-02T03:30:54.582Z,216
2018-06-02T03:31:35.164Z,220
2018-06-02T03:32:15.735Z,224
2018-06-02T03:32:56.337Z,228
2018-06-02T03:33:36.909Z,236
2018-06-02T03:34:17.508Z,236
2018-06-02T03:34:58.074Z,240
2018-06-02T03:35:38.632Z,248
2018-06-02T03:36:19.201Z,252
2018-06-02T03:36:59.807Z,252
2018-06-02T03:37:40.382Z,256
2018-06-02T03:38:20.931Z,256
2018-06-02T03:39:01.516Z,260
2018-06-02T03:39:42.100Z,264
2018-06-02T03:40:22.651Z,264
2018-06-02T03:41:03.219Z,264
2018-06-02T03:41:43.783Z,272
2018-06-02T03:42:24.344Z,276
2018-06-02T03:43:04.918Z,280
2018-06-02T03:43:45.501Z,284
2018-06-02T03:44:26.113Z,288
2018-06-02T03:45:06.653Z,292
2018-06-02T03:45:47.218Z,300
2018-06-02T03:46:27.779Z,308
2018-06-02T03:47:08.331Z,308
2018-06-02T03:47:48.912Z,316
2018-06-02T03:48:29.479Z,320
2018-06-02T03:49:10.057Z,328
2018-06-02T03:49:50.633Z,332
2018-06-02T03:50:31.193Z,336
2018-06-02T03:51:11.768Z,344
2018-06-02T03:51:52.340Z,348
2018-06-02T03:52:32.904Z,356
2018-06-02T03:53:13.451Z,364
2018-06-02T03:53:54.008Z,372
2018-06-02T03:54:34.597Z,384
2018-06-02T03:55:15.164Z,392
2018-06-02T03:55:55.716Z,404
2018-06-02T03:56:36.361Z,416
2018-06-02T03:57:16.939Z,424
2018-06-02T03:57:57.501Z,436
2018-06-02T03:58:38.072Z,448
2018-06-02T03:59:18.615Z,460
2018-06-02T03:59:59.173Z,468
2018-06-02T04:00:39.715Z,484
2018-06-02T04:01:20.294Z,496
2018-06-02T04:02:00.866Z,508
2018-06-02T04:02:41.479Z,520
2018-06-02T04:03:22.006Z,536
2018-06-02T04:04:02.585Z,548
2018-06-02T04:04:43.148Z,556
2018-06-02T04:05:23.732Z,568
2018-06-02T04:06:04.309Z,584
2018-06-02T04:06:44.890Z,596
2018-06-02T04:07:25.435Z,604
2018-06-02T04:08:05.985Z,612
2018-06-02T04:08:46.533Z,616
2018-06-02T04:09:27.096Z,616
2018-06-02T04:10:07.627Z,612
2018-06-02T04:10:48.216Z,612
2018-06-02T04:11:28.847Z,616
2018-06-02T04:12:09.414Z,624
2018-06-02T04:12:49.995Z,632
2018-06-02T04:13:30.576Z,640
2018-06-02T04:14:11.129Z,648
2018-06-02T04:14:51.702Z,656
2018-06-02T04:15:32.233Z,668
2018-06-02T04:16:12.784Z,680
2018-06-02T04:16:53.349Z,692
2018-06-02T04:17:33.974Z,704
2018-06-02T04:18:14.529Z,720
2018-06-02T04:18:55.083Z,728
2018-06-02T04:19:35.633Z,732
2018-06-02T04:20:16.219Z,736
2018-06-02T04:20:56.787Z,744
2018-06-02T04:21:37.398Z,744
2018-06-02T04:22:17.926Z,748
2018-06-02T04:22:58.540Z,752
2018-06-02T04:23:39.108Z,748
2018-06-02T04:24:19.686Z,756
2018-06-02T04:25:00.247Z,756
2018-06-02T04:25:40.846Z,764
2018-06-02T04:26:21.395Z,772
2018-06-02T04:27:01.992Z,780
2018-06-02T04:27:42.541Z,792
2018-06-02T04:28:23.189Z,804
2018-06-02T04:29:03.738Z,820
2018-06-02T04:29:44.309Z,828
2018-06-02T04:30:24.871Z,836
2018-06-02T04:31:05.437Z,848
2018-06-02T04:31:46.020Z,852
2018-06-02T04:32:26.603Z,864
2018-06-02T04:33:07.164Z,868
2018-06-02T04:33:47.736Z,872
2018-06-02T04:34:28.291Z,880
2018-06-02T04:35:08.836Z,884
2018-06-02T04:35:49.383Z,888
2018-06-02T04:36:29.972Z,896
2018-06-02T04:37:10.549Z,900
2018-06-02T04:37:51.142Z,904
2018-06-02T04:38:31.671Z,908
2018-06-02T04:39:12.256Z,912
2018-06-02T04:39:52.811Z,916
2018-06-02T04:40:33.368Z,916
2018-06-02T04:41:13.947Z,916
2018-06-02T04:41:54.503Z,916
2018-06-02T04:42:35.063Z,916
2018-06-02T04:43:15.650Z,920
2018-06-02T04:43:56.216Z,924
2018-06-02T04:44:36.789Z,928
2018-06-02T04:45:17.356Z,940
2018-06-02T04:45:57.910Z,948
2018-06-02T04:46:38.494Z,960
2018-06-02T04:47:19.071Z,968
2018-06-02T04:47:59.659Z,976
2018-06-02T04:48:40.239Z,984
2018-06-02T04:49:20.780Z,992
2018-06-02T04:50:01.336Z,996
2018-06-02T04:50:41.886Z,1004
2018-06-02T04:51:22.435Z,1008
2018-06-02T04:52:03.012Z,1012
2018-06-02T04:52:43.566Z,1020
2018-06-02T04:53:24.101Z,1024
2018-06-02T04:54:04.681Z,1032
2018-06-02T04:54:45.232Z,1040
2018-06-02T04:55:25.786Z,1044
2018-06-02T04:56:06.337Z,1052
2018-06-02T04:56:46.908Z,1060
2018-06-02T04:57:27.504Z,1072
2018-06-02T04:58:08.058Z,1076
2018-06-02T04:58:48.660Z,1080
2018-06-02T04:59:29.236Z,1084
2018-06-02T05:00:09.808Z,1080
2018-06-02T05:00:50.374Z,1080
2018-06-02T05:01:30.946Z,1084
2018-06-02T05:02:11.495Z,1088
2018-06-02T05:02:52.032Z,1080
2018-06-02T05:03:32.597Z,1080
2018-06-02T05:04:13.158Z,1080
2018-06-02T05:04:53.733Z,1084
2018-06-02T05:05:34.288Z,1088
2018-06-02T05:06:14.848Z,1092
2018-06-02T05:06:55.430Z,1096
2018-06-02T05:07:35.991Z,1100
2018-06-02T05:08:16.578Z,1104
2018-06-02T05:08:57.142Z,1112
2018-06-02T05:09:37.705Z,1124
2018-06-02T05:10:18.311Z,1136
2018-06-02T05:10:58.864Z,1148
2018-06-02T05:11:39.433Z,1160
2018-06-02T05:12:20.007Z,1176
2018-06-02T05:13:00.566Z,1188
2018-06-02T05:13:41.151Z,1200
2018-06-02T05:14:21.717Z,1212
2018-06-02T05:15:02.281Z,1224
2018-06-02T05:15:42.855Z,1236
2018-06-02T05:16:23.405Z,1248
2018-06-02T05:17:03.989Z,1256
2018-06-02T05:17:44.538Z,1268
2018-06-02T05:18:25.130Z,1276
2018-06-02T05:19:05.710Z,1284
2018-06-02T05:19:46.309Z,1296
2018-06-02T05:20:26.844Z,1316
2018-06-02T05:21:07.425Z,1336
2018-06-02T05:21:48.033Z,1352
2018-06-02T05:22:28.625Z,1372
2018-06-02T05:23:09.183Z,1384
2018-06-02T05:23:49.797Z,1400
2018-06-02T05:24:30.343Z,1416
2018-06-02T05:25:10.903Z,1424
2018-06-02T05:25:51.461Z,1440
2018-06-02T05:26:32.068Z,1456
2018-06-02T05:27:12.684Z,1472
2018-06-02T05:27:53.278Z,1484
2018-06-02T05:28:33.843Z,1492
2018-06-02T05:29:14.470Z,1504
2018-06-02T05:29:54.978Z,1508
2018-06-02T05:30:35.510Z,1512
2018-06-02T05:31:16.078Z,1532
2018-06-02T05:31:56.618Z,1540
2018-06-02T05:32:37.177Z,1552
2018-06-02T05:33:17.740Z,1552
2018-06-02T05:33:58.305Z,1568
2018-06-02T05:34:38.915Z,1572
2018-06-02T05:35:19.471Z,1580
2018-06-02T05:36:00.030Z,1588
2018-06-02T05:36:40.579Z,1600
2018-06-02T05:37:21.161Z,1612
2018-06-02T05:38:01.833Z,1620
2018-06-02T05:38:42.385Z,1636
2018-06-02T05:39:22.942Z,1652
2018-06-02T05:40:03.495Z,1656
2018-06-02T05:40:44.054Z,1664
2018-06-02T05:41:24.625Z,1668
2018-06-02T05:42:05.187Z,1696
2018-06-02T05:42:45.738Z,1716
2018-06-02T05:43:26.351Z,1712
2018-06-02T05:44:06.960Z,1696
2018-06-02T05:44:47.515Z,1692
2018-06-02T05:45:28.090Z,1712
2018-06-02T05:46:08.640Z,1704
2018-06-02T05:46:49.204Z,1688
2018-06-02T05:47:29.785Z,1732
2018-06-02T05:48:10.369Z,1776
2018-06-02T05:48:50.943Z,1788
2018-06-02T05:49:31.492Z,1804
2018-06-02T05:50:12.057Z,1828
2018-06-02T05:50:52.652Z,1840
2018-06-02T05:51:33.193Z,1856
2018-06-02T05:52:13.742Z,1896
2018-06-02T05:52:54.294Z,1924
2018-06-02T05:53:35.117Z,1960
2018-06-02T05:54:15.692Z,2000
2018-06-02T05:54:56.252Z,2040
2018-06-02T05:55:36.888Z,2088
2018-06-02T05:56:17.441Z,2132
2018-06-02T05:56:58.012Z,2188
2018-06-02T05:57:38.572Z,2232
2018-06-02T05:58:19.169Z,2248
2018-06-02T05:58:59.772Z,2304
2018-06-02T05:59:40.313Z,2360
2018-06-02T06:00:20.901Z,2416
2018-06-02T06:01:01.479Z,2440
2018-06-02T06:01:42.053Z,2488
2018-06-02T06:02:22.613Z,2524
2018-06-02T06:03:03.174Z,2544
2018-06-02T06:03:43.724Z,2600
2018-06-02T06:04:24.292Z,2612
2018-06-02T06:05:04.846Z,2504
2018-06-02T06:05:45.412Z,2544
2018-06-02T06:06:26.018Z,2684
2018-06-02T06:07:06.616Z,2760
2018-06-02T06:07:47.255Z,2772
2018-06-02T06:08:27.821Z,2808
2018-06-02T06:09:08.407Z,2912
2018-06-02T06:09:48.978Z,2988
2018-06-02T06:10:29.594Z,2872
2018-06-02T06:11:10.144Z,3076
2018-06-02T06:11:50.702Z,3144
2018-06-02T06:12:31.285Z,3136
2018-06-02T06:13:11.859Z,3120
2018-06-02T06:13:52.423Z,3104
2018-06-02T06:14:33.071Z,3108
2018-06-02T06:15:13.654Z,3112
2018-06-02T06:15:54.255Z,3104
2018-06-02T06:16:34.781Z,3032
2018-06-02T06:17:15.359Z,3096
2018-06-02T06:17:55.904Z,3088
2018-06-02T06:18:36.503Z,3052
2018-06-02T06:19:17.081Z,3144
2018-06-02T06:19:57.656Z,3152
2018-06-02T06:20:38.217Z,3076
2018-06-02T06:21:18.757Z,3168
2018-06-02T06:21:59.316Z,3268
2018-06-02T06:22:39.859Z,3352
2018-06-02T06:23:20.436Z,3436
2018-06-02T06:24:01.006Z,3456
2018-06-02T06:24:41.567Z,3524
2018-06-02T06:25:22.133Z,3500
2018-06-02T06:26:02.733Z,3668
2018-06-02T06:26:43.266Z,3604
2018-06-02T06:27:23.827Z,3640
2018-06-02T06:28:04.403Z,3608
2018-06-02T06:28:44.981Z,3508
2018-06-02T06:29:25.568Z,3608
2018-06-02T06:30:06.102Z,3692
2018-06-02T06:30:46.676Z,3608
2018-06-02T06:31:27.261Z,3656
2018-06-02T06:32:07.830Z,3496
2018-06-02T06:32:48.477Z,3512
2018-06-02T06:33:29.040Z,3696
2018-06-02T06:34:09.596Z,3760
2018-06-02T06:34:50.252Z,3936
2018-06-02T06:35:30.975Z,4456
2018-06-02T06:36:11.545Z,4396
2018-06-02T06:36:52.092Z,4432
2018-06-02T06:37:32.667Z,4776
2018-06-02T06:38:13.235Z,5020
2018-06-02T06:38:53.814Z,5468
2018-06-02T06:39:34.398Z,5204
2018-06-02T06:40:15.002Z,5196
2018-06-02T06:40:55.554Z,5332
2018-06-02T06:41:36.118Z,5560
2018-06-02T06:42:16.684Z,5648
2018-06-02T06:42:57.250Z,5768
2018-06-02T06:43:37.835Z,6248
2018-06-02T06:44:18.399Z,6576
2018-06-02T06:44:58.956Z,6776
2018-06-02T06:45:39.529Z,7000
2018-06-02T06:46:20.079Z,7248
2018-06-02T06:47:00.661Z,7596
2018-06-02T06:47:41.204Z,8024
2018-06-02T06:48:21.790Z,8408
2018-06-02T06:49:02.348Z,9068
2018-06-02T06:49:42.927Z,11752
2018-06-02T06:50:23.476Z,11740
2018-06-02T06:51:04.045Z,19136
2018-06-02T06:51:44.621Z,35392
2018-06-02T06:52:25.182Z,34272
2018-06-02T06:53:05.748Z,27648
2018-06-02T06:53:46.315Z,25696
2018-06-02T06:54:26.936Z,21536
2018-06-02T06:55:07.502Z,27296
2018-06-02T06:55:48.059Z,25760
2018-06-02T06:56:28.628Z,21088
2018-06-02T06:57:09.178Z,22144
2018-06-02T06:57:49.751Z,20128
2018-06-02T06:58:30.335Z,20192
2018-06-02T06:59:10.892Z,21792
2018-06-02T06:59:51.490Z,22688
2018-06-02T07:00:32.029Z,20416
2018-06-02T07:01:12.609Z,33472
2018-06-02T07:01:53.186Z,54720
2018-06-02T07:02:33.762Z,57568
2018-06-02T07:03:14.424Z,46144
2018-06-02T07:03:54.983Z,54336
2018-06-02T07:04:35.536Z,58112
2018-06-02T07:05:16.140Z,59456
2018-06-02T07:05:56.701Z,41536
2018-06-02T07:06:37.271Z,41504
2018-06-02T07:07:17.835Z,46944
2018-06-02T07:07:58.392Z,34848
2018-06-02T07:08:38.987Z,41984
2018-06-02T07:09:19.567Z,34368
2018-06-02T07:10:00.167Z,38816
2018-06-02T07:10:40.719Z,63488
2018-06-02T07:11:21.305Z,46624
2018-06-02T07:12:01.887Z,45216
2018-06-02T07:12:42.408Z,46944
2018-06-02T07:13:22.988Z,48768
2018-06-02T07:14:03.542Z,41728
2018-06-02T07:14:44.109Z,36256
2018-06-02T07:15:24.691Z,42272
2018-06-02T07:16:05.270Z,34048
2018-06-02T07:16:45.846Z,29920
2018-06-02T07:17:26.661Z,23776
2018-06-02T07:18:07.233Z,21728
2018-06-02T07:18:47.875Z,20064
2018-06-02T07:19:28.414Z,19936
2018-06-02T07:20:08.985Z,19680
2018-06-02T07:20:49.556Z,20320
2018-06-02T07:21:30.123Z,22464
2018-06-02T07:22:10.693Z,27456
2018-06-02T07:22:51.300Z,26432
2018-06-02T07:23:31.870Z,17568
2018-06-02T07:24:12.441Z,29504
2018-06-02T07:24:53.035Z,24800
2018-06-02T07:25:33.576Z,27296
2018-06-02T07:26:14.156Z,27360
2018-06-02T07:26:54.737Z,22240
2018-06-02T07:27:35.354Z,20224
2018-06-02T07:28:15.867Z,18400
2018-06-02T07:28:56.438Z,17088
2018-06-02T07:29:37.012Z,15392
2018-06-02T07:30:17.567Z,14768
2018-06-02T07:30:58.139Z,14700
2018-06-02T07:31:38.789Z,14956
2018-06-02T07:32:19.366Z,15468
2018-06-02T07:32:59.948Z,15788
2018-06-02T07:33:40.523Z,13448
2018-06-02T07:34:21.106Z,15652
2018-06-02T07:35:01.684Z,17600
2018-06-02T07:35:42.253Z,17440
2018-06-02T07:36:22.822Z,17568
2018-06-02T07:37:03.394Z,16512
2018-06-02T07:37:43.955Z,17184
2018-06-02T07:38:24.541Z,18400
2018-06-02T07:39:05.090Z,16864
2018-06-02T07:39:45.663Z,16448
2018-06-02T07:40:26.237Z,15240
2018-06-02T07:41:06.802Z,12352
2018-06-02T07:41:47.370Z,11924
2018-06-02T07:42:27.945Z,11820
2018-06-02T07:43:08.533Z,11716
2018-06-02T07:43:49.097Z,11660
2018-06-02T07:44:29.667Z,11836
2018-06-02T07:45:10.242Z,12200
2018-06-02T07:45:50.825Z,12388
2018-06-02T07:46:31.384Z,13568
2018-06-02T07:47:11.990Z,14064
2018-06-02T07:47:52.540Z,15696
2018-06-02T07:48:33.126Z,17504
2018-06-02T07:49:13.688Z,15132
2018-06-02T07:49:54.339Z,17440
2018-06-02T07:50:34.839Z,28512
2018-06-02T07:51:15.426Z,35072
2018-06-02T07:51:56.023Z,41344
2018-06-02T07:52:36.594Z,32448
2018-06-02T07:53:17.243Z,46976
2018-06-02T07:53:57.774Z,43808
2018-06-02T07:54:38.320Z,24992
2018-06-02T07:55:18.882Z,15648
2018-06-02T07:55:59.433Z,13604
2018-06-02T07:56:40.006Z,12444
2018-06-02T07:57:20.593Z,48608
2018-06-02T07:58:01.144Z,44352
2018-06-02T07:58:41.743Z,18432
2018-06-02T07:59:22.308Z,14704
2018-06-02T08:00:02.888Z,13252
2018-06-02T08:00:43.467Z,22144
2018-06-02T08:01:24.054Z,21952
2018-06-02T08:02:04.616Z,22144
2018-06-02T08:02:45.215Z,17440
2018-06-02T08:03:25.746Z,18048
2018-06-02T08:04:06.325Z,19904
2018-06-02T08:04:46.914Z,19072
2018-06-02T08:05:27.503Z,14468
2018-06-02T08:06:08.080Z,21152
2018-06-02T08:06:48.655Z,22304
2018-06-02T08:07:29.219Z,17696
2018-06-02T08:08:09.795Z,13296
2018-06-02T08:08:50.378Z,9824
2018-06-02T08:09:31.008Z,10144
2018-06-02T08:10:11.572Z,8712
2018-06-02T08:10:52.142Z,7944
2018-06-02T08:11:32.722Z,7344
2018-06-02T08:12:13.303Z,7668
2018-06-02T08:12:53.871Z,10612
2018-06-02T08:13:34.427Z,12120
2018-06-02T08:14:14.996Z,10440
2018-06-02T08:14:55.568Z,8752
2018-06-02T08:15:36.106Z,8080
2018-06-02T08:16:16.663Z,7580
2018-06-02T08:16:57.232Z,6856
2018-06-02T08:17:37.800Z,6828
2018-06-02T08:18:18.393Z,6984
2018-06-02T08:18:58.958Z,10308
2018-06-02T08:19:39.517Z,13340
2018-06-02T08:20:20.059Z,17152
2018-06-02T08:21:00.618Z,18336
2018-06-02T08:21:41.169Z,17984
2018-06-02T08:22:21.738Z,15292
2018-06-02T08:23:02.314Z,16864
2018-06-02T08:23:42.901Z,15440
2018-06-02T08:24:23.471Z,15916
2018-06-02T08:25:04.042Z,15964
2018-06-02T08:25:44.608Z,13140
2018-06-02T08:26:25.204Z,11160
2018-06-02T08:27:05.786Z,9232
2018-06-02T08:27:46.343Z,7520
2018-06-02T08:28:26.892Z,6356
2018-06-02T08:29:07.483Z,5736
2018-06-02T08:29:48.183Z,5996
2018-06-02T08:30:28.746Z,9512
2018-06-02T08:31:09.314Z,9424
2018-06-02T08:31:49.909Z,9992
2018-06-02T08:32:30.480Z,10048
2018-06-02T08:33:11.039Z,9872
2018-06-02T08:33:51.663Z,9268
2018-06-02T08:34:32.225Z,7772
2018-06-02T08:35:12.791Z,7164
2018-06-02T08:35:53.344Z,7696
2018-06-02T08:36:33.938Z,10536
2018-06-02T08:37:14.496Z,10900
2018-06-02T08:37:55.101Z,12540
2018-06-02T08:38:35.672Z,14912
2018-06-02T08:39:16.235Z,16288
2018-06-02T08:39:56.830Z,17248
2018-06-02T08:40:37.386Z,17088
2018-06-02T08:41:17.950Z,14848
2018-06-02T08:41:58.550Z,13260
2018-06-02T08:42:39.114Z,11972
2018-06-02T08:43:19.682Z,10244
2018-06-02T08:44:00.249Z,9308
2018-06-02T08:44:40.856Z,8776
2018-06-02T08:45:21.449Z,8968
2018-06-02T08:46:02.019Z,10088
2018-06-02T08:46:42.597Z,10704
2018-06-02T08:47:23.176Z,10592
2018-06-02T08:48:03.763Z,10944
2018-06-02T08:48:44.323Z,12072
2018-06-02T08:49:24.896Z,13704
2018-06-02T08:50:05.485Z,14824
2018-06-02T08:50:46.047Z,15428
2018-06-02T08:51:26.644Z,15528
2018-06-02T08:52:07.204Z,15736
2018-06-02T08:52:47.778Z,16080
2018-06-02T08:53:28.372Z,15992
2018-06-02T08:54:08.937Z,15108
2018-06-02T08:54:49.476Z,14660
2018-06-02T08:55:30.030Z,14516
2018-06-02T08:56:10.579Z,14292
2018-06-02T08:56:51.140Z,14608
2018-06-02T08:57:31.723Z,14908
2018-06-02T08:58:12.316Z,14760
2018-06-02T08:58:52.881Z,14588
2018-06-02T08:59:33.446Z,14508
2018-06-02T09:00:14.007Z,13692
2018-06-02T09:00:54.580Z,12760
2018-06-02T09:01:35.160Z,12932
2018-06-02T09:02:15.749Z,13184
2018-06-02T09:02:56.298Z,13416
2018-06-02T09:03:36.918Z,13244
2018-06-02T09:04:17.491Z,13612
2018-06-02T09:04:58.047Z,13896
2018-06-02T09:05:38.624Z,13752
2018-06-02T09:06:19.205Z,13232
2018-06-02T09:06:59.772Z,11520
2018-06-02T09:07:40.338Z,10184
2018-06-02T09:08:20.899Z,8812
2018-06-02T09:09:01.465Z,8152
2018-06-02T09:09:42.052Z,7868
2018-06-02T09:10:22.704Z,7312
2018-06-02T09:11:03.251Z,6652
2018-06-02T09:11:43.892Z,6100
2018-06-02T09:12:24.458Z,5780
2018-06-02T09:13:05.020Z,5696
2018-06-02T09:13:45.596Z,5796
2018-06-02T09:14:26.148Z,5844
2018-06-02T09:15:06.757Z,5952
2018-06-02T09:15:47.353Z,6060
2018-06-02T09:16:27.974Z,6248
2018-06-02T09:17:08.542Z,6564